createdAt,value
2017-08-31T13:11:49.251Z,17
2017-08-31T13:11:52.484Z,16.9
2017-08-31T13:11:55.963Z,16.9
2017-08-31T13:11:59.434Z,16.8
2017-08-31T13:12:02.906Z,16.8
2017-08-31T13:12:06.374Z,16.8
2017-08-31T13:12:09.496Z,16.8
2017-08-31T13:12:12.970Z,16.8
2017-08-31T13:12:15.735Z,16.8
2017-08-31T13:12:20.005Z,16.8
2017-08-31T13:12:23.504Z,16.8
2017-08-31T13:12:26.365Z,16.8
2017-08-31T13:12:29.465Z,16.7
2017-08-31T13:12:32.930Z,16.7
2017-08-31T13:12:36.412Z,16.7
2017-08-31T13:12:39.889Z,16.7
2017-08-31T13:12:43.036Z,16.7
2017-08-31T13:12:46.842Z,16.6
2017-08-31T13:12:50.678Z,16.5
2017-08-31T13:12:55.462Z,16.5
2017-08-31T13:12:59.997Z,16.5
2017-08-31T13:13:04.653Z,16.4
2017-08-31T13:13:09.815Z,16.4
2017-08-31T13:13:14.498Z,16.4
2017-08-31T13:13:19.469Z,16.4
2017-08-31T13:13:24.874Z,16.3
2017-08-31T13:13:29.977Z,16.3
2017-08-31T13:13:37.641Z,16.2
2017-08-31T13:13:42.536Z,16.2
2017-08-31T13:13:47.825Z,16.1
2017-08-31T13:13:53.225Z,16.1
2017-08-31T13:13:58.825Z,16
2017-08-31T13:14:03.890Z,16
2017-08-31T13:14:08.616Z,16
2017-08-31T13:14:12.806Z,16
2017-08-31T13:14:16.983Z,16
2017-08-31T13:14:22.089Z,16
2017-08-31T13:14:27.328Z,16
2017-08-31T13:14:32.575Z,16
2017-08-31T13:14:38.932Z,15.9
2017-08-31T13:14:46.680Z,15.9
2017-08-31T13:14:50.943Z,15.8
2017-08-31T13:14:54.895Z,15.8
2017-08-31T13:14:59.046Z,15.8
2017-08-31T13:15:03.010Z,15.8
2017-08-31T13:15:06.911Z,15.8
2017-08-31T13:15:11.899Z,15.8
2017-08-31T13:15:15.712Z,15.8
2017-08-31T13:15:20.586Z,15.7
2017-08-31T13:15:24.966Z,15.7
2017-08-31T13:15:28.581Z,15.7
2017-08-31T13:15:32.543Z,15.7
2017-08-31T13:15:37.358Z,15.7
2017-08-31T13:15:41.301Z,15.6
2017-08-31T13:15:44.917Z,15.6
2017-08-31T13:15:50.605Z,15.6
2017-08-31T13:15:54.938Z,15.6
2017-08-31T13:15:58.476Z,15.6
2017-08-31T13:16:01.840Z,15.6
2017-08-31T13:16:06.177Z,15.6
2017-08-31T13:16:10.324Z,15.6
2017-08-31T13:16:14.101Z,15.6
2017-08-31T13:16:18.007Z,15.6
2017-08-31T13:16:22.960Z,15.6
2017-08-31T13:16:27.127Z,15.6
2017-08-31T13:16:31.101Z,15.6
2017-08-31T13:16:35.001Z,15.6
2017-08-31T13:16:40.306Z,15.6
2017-08-31T13:16:44.717Z,15.6
2017-08-31T13:16:48.356Z,15.5
2017-08-31T13:16:52.875Z,15.5
2017-08-31T13:16:57.207Z,15.5
2017-08-31T13:17:00.599Z,15.5
2017-08-31T13:17:04.099Z,15.5
2017-08-31T13:17:07.136Z,15.5
2017-08-31T13:17:11.695Z,15.4
2017-08-31T13:17:15.681Z,15.4
2017-08-31T13:17:19.581Z,15.4
2017-08-31T13:17:22.794Z,15.4
2017-08-31T13:17:26.942Z,15.3
2017-08-31T13:17:31.199Z,15.3
2017-08-31T13:17:35.178Z,15.3
2017-08-31T13:17:39.295Z,15.2
2017-08-31T13:17:42.598Z,15.2
2017-08-31T13:17:46.803Z,15.2
2017-08-31T13:17:51.019Z,15.2
2017-08-31T13:17:55.440Z,15.2
2017-08-31T13:17:59.071Z,15.2
2017-08-31T13:18:02.621Z,15.2
2017-08-31T13:18:06.282Z,15.1
2017-08-31T13:18:10.338Z,15.1
2017-08-31T13:18:14.396Z,15.1
2017-08-31T13:18:18.388Z,15.1
2017-08-31T13:18:22.538Z,15.1
2017-08-31T13:18:26.299Z,15.1
2017-08-31T13:18:30.135Z,15.1
2017-08-31T13:18:34.987Z,15.1
2017-08-31T13:18:38.561Z,15.1
2017-08-31T13:18:43.078Z,15
2017-08-31T13:18:46.983Z,14.9
2017-08-31T13:18:51.255Z,14.9
2017-08-31T13:18:55.440Z,14.9
2017-08-31T13:19:00.087Z,14.9
2017-08-31T13:19:14.422Z,14.8
2017-08-31T13:19:18.411Z,14.8
2017-08-31T13:19:22.911Z,14.7
2017-08-31T13:19:26.271Z,14.7
2017-08-31T13:19:30.015Z,14.7
2017-08-31T13:19:35.073Z,14.7
2017-08-31T13:19:39.136Z,14.7
2017-08-31T13:19:43.403Z,14.6
2017-08-31T13:19:47.197Z,14.6
2017-08-31T13:19:50.510Z,14.6
2017-08-31T13:19:54.266Z,14.6
2017-08-31T13:19:58.169Z,14.6
2017-08-31T13:20:01.952Z,14.6
2017-08-31T13:20:05.244Z,14.6
2017-08-31T13:20:09.261Z,14.6
2017-08-31T13:20:13.123Z,14.6
2017-08-31T13:20:16.753Z,14.6
2017-08-31T13:20:20.544Z,14.6
2017-08-31T13:20:24.524Z,14.6
2017-08-31T13:20:28.238Z,14.6
2017-08-31T13:20:31.807Z,14.6
2017-08-31T13:20:35.298Z,14.6
2017-08-31T13:20:38.779Z,14.6
2017-08-31T13:20:42.218Z,14.6
2017-08-31T13:20:45.721Z,14.5
2017-08-31T13:20:49.141Z,14.5
2017-08-31T13:20:52.207Z,14.5
2017-08-31T13:20:55.309Z,14.5
2017-08-31T13:20:58.778Z,14.5
2017-08-31T13:21:02.230Z,14.5
2017-08-31T13:21:05.673Z,14.6
2017-08-31T13:21:09.149Z,14.6
2017-08-31T13:21:12.222Z,14.6
2017-08-31T13:21:15.317Z,14.6
2017-08-31T13:21:18.759Z,14.6
2017-08-31T13:21:21.858Z,14.6
2017-08-31T13:21:25.313Z,14.6
2017-08-31T13:21:28.770Z,14.6
2017-08-31T13:21:32.178Z,14.6
2017-08-31T13:21:35.280Z,14.6
2017-08-31T13:21:38.741Z,14.5
2017-08-31T13:21:41.816Z,14.5
2017-08-31T13:21:45.475Z,14.5
2017-08-31T13:21:48.943Z,14.5
2017-08-31T13:21:52.438Z,14.5
2017-08-31T13:21:55.910Z,14.4
2017-08-31T13:21:59.357Z,14.4
2017-08-31T13:22:02.461Z,14.3
2017-08-31T13:22:05.928Z,14.3
2017-08-31T13:22:09.027Z,14.3
2017-08-31T13:22:12.474Z,14.3
2017-08-31T13:22:15.933Z,14.3
2017-08-31T13:22:19.390Z,14.3
2017-08-31T13:22:22.860Z,14.3
2017-08-31T13:22:26.325Z,14.3
2017-08-31T13:22:29.790Z,14.3
2017-08-31T13:22:32.874Z,14.3
2017-08-31T13:22:35.992Z,14.3
2017-08-31T13:22:39.454Z,14.2
2017-08-31T13:22:42.917Z,14.2
2017-08-31T13:22:46.033Z,14.2
2017-08-31T13:22:49.487Z,14.2
2017-08-31T13:22:52.611Z,14.3
2017-08-31T13:22:56.052Z,14.2
2017-08-31T13:22:59.513Z,14.2
2017-08-31T13:23:02.991Z,14.2
2017-08-31T13:23:06.436Z,14.2
2017-08-31T13:23:09.550Z,14.2
2017-08-31T13:23:12.992Z,14.2
2017-08-31T13:23:16.110Z,14.2
2017-08-31T13:23:19.252Z,14.2
2017-08-31T13:23:22.678Z,14.2
2017-08-31T13:23:26.170Z,14.2
2017-08-31T13:23:29.630Z,14.2
2017-08-31T13:23:32.743Z,14.2
2017-08-31T13:23:35.819Z,14.2
2017-08-31T13:23:39.277Z,14.2
2017-08-31T13:23:42.354Z,14.2
2017-08-31T13:23:45.549Z,14.2
2017-08-31T13:23:49.178Z,14.2
2017-08-31T13:23:52.727Z,14.2
2017-08-31T13:23:56.157Z,14.2
2017-08-31T13:23:59.631Z,14.2
2017-08-31T13:24:03.090Z,14.2
2017-08-31T13:24:06.536Z,14.2
2017-08-31T13:24:09.657Z,14.2
2017-08-31T13:24:12.822Z,14.2
2017-08-31T13:24:16.262Z,14.2
2017-08-31T13:24:19.718Z,14.2
2017-08-31T13:24:23.158Z,14.3
2017-08-31T13:24:26.607Z,14.3
2017-08-31T13:24:30.052Z,14.3
2017-08-31T13:24:33.140Z,14.3
2017-08-31T13:24:36.271Z,14.3
2017-08-31T13:24:39.378Z,14.3
2017-08-31T13:24:42.495Z,14.3
2017-08-31T13:24:45.617Z,14.3
2017-08-31T13:24:49.065Z,14.3
2017-08-31T13:24:52.517Z,14.3
2017-08-31T13:24:55.959Z,14.2
2017-08-31T13:24:59.410Z,14.3
2017-08-31T13:25:02.858Z,14.2
2017-08-31T13:25:05.958Z,14.2
2017-08-31T13:25:09.416Z,14.3
2017-08-31T13:25:12.539Z,14.3
2017-08-31T13:25:15.990Z,14.3
2017-08-31T13:25:19.434Z,14.3
2017-08-31T13:25:22.871Z,14.3
2017-08-31T13:25:26.318Z,14.2
2017-08-31T13:25:29.751Z,14.3
2017-08-31T13:25:32.821Z,14.2
2017-08-31T13:25:36.291Z,14.3
2017-08-31T13:25:39.393Z,14.3
2017-08-31T13:25:42.473Z,14.3
2017-08-31T13:25:45.939Z,14.3
2017-08-31T13:25:49.394Z,14.3
2017-08-31T13:25:52.857Z,14.3
2017-08-31T13:25:56.318Z,14.3
2017-08-31T13:25:59.778Z,14.2
2017-08-31T13:26:02.891Z,14.3
2017-08-31T13:26:06.519Z,14.2
2017-08-31T13:26:09.674Z,14.2
2017-08-31T13:26:13.133Z,14.2
2017-08-31T13:26:16.579Z,14.2
2017-08-31T13:26:19.659Z,14.2
2017-08-31T13:26:23.111Z,14.2
2017-08-31T13:26:26.576Z,14.2
2017-08-31T13:26:30.022Z,14.1
2017-08-31T13:26:33.531Z,14.2
2017-08-31T13:26:36.630Z,14.2
2017-08-31T13:26:40.096Z,14.2
2017-08-31T13:26:43.171Z,14.2
2017-08-31T13:26:46.267Z,14.2
2017-08-31T13:26:49.707Z,14.2
2017-08-31T13:26:53.142Z,14.2
2017-08-31T13:26:56.221Z,14.2
2017-08-31T13:26:59.670Z,14.2
2017-08-31T13:27:03.103Z,14.2
2017-08-31T13:27:06.240Z,14.2
2017-08-31T13:27:09.697Z,14.2
2017-08-31T13:27:13.153Z,14.2
2017-08-31T13:27:16.685Z,14.2
2017-08-31T13:27:19.818Z,14.2
2017-08-31T13:27:23.270Z,14.2
2017-08-31T13:27:26.368Z,14.2
2017-08-31T13:27:29.461Z,14.1
2017-08-31T13:27:32.914Z,14.1
2017-08-31T13:27:36.033Z,14.1
2017-08-31T13:27:39.145Z,14.2
2017-08-31T13:27:42.222Z,14.1
2017-08-31T13:27:45.685Z,14.1
2017-08-31T13:27:49.140Z,14.1
2017-08-31T13:27:52.600Z,14.1
2017-08-31T13:27:56.052Z,14.1
2017-08-31T13:27:59.519Z,14.1
2017-08-31T13:28:02.973Z,14.2
2017-08-31T13:28:06.425Z,14.2
2017-08-31T13:28:09.850Z,14.2
2017-08-31T13:28:13.300Z,14.2
2017-08-31T13:28:16.742Z,14.2
2017-08-31T13:28:20.182Z,14.2
2017-08-31T13:28:23.619Z,14.3
2017-08-31T13:28:27.084Z,14.3
2017-08-31T13:28:30.156Z,14.3
2017-08-31T13:28:33.594Z,14.3
2017-08-31T13:28:36.663Z,14.3
2017-08-31T13:28:40.093Z,14.3
2017-08-31T13:28:43.564Z,14.3
2017-08-31T13:28:47.027Z,14.3
2017-08-31T13:28:50.111Z,14.3
2017-08-31T13:28:53.561Z,14.4
2017-08-31T13:28:57.009Z,14.3
2017-08-31T13:29:00.491Z,14.3
2017-08-31T13:29:03.978Z,14.4
2017-08-31T13:29:07.557Z,14.4
2017-08-31T13:29:11.014Z,14.3
2017-08-31T13:29:14.460Z,14.3
2017-08-31T13:29:17.913Z,14.3
2017-08-31T13:29:21.374Z,14.3
2017-08-31T13:29:24.198Z,14.3
2017-08-31T13:29:27.918Z,14.3
2017-08-31T13:29:31.528Z,14.3
2017-08-31T13:29:35.218Z,14.3
2017-08-31T13:29:38.719Z,14.3
2017-08-31T13:29:41.838Z,14.3
2017-08-31T13:29:45.277Z,14.3
2017-08-31T13:29:48.752Z,14.3
2017-08-31T13:29:52.221Z,14.2
2017-08-31T13:29:56.090Z,14.3
2017-08-31T13:29:59.307Z,14.3
2017-08-31T13:30:02.753Z,14.3
2017-08-31T13:30:06.206Z,14.3
2017-08-31T13:30:09.673Z,14.3
2017-08-31T13:30:13.140Z,14.3
2017-08-31T13:30:16.596Z,14.4
2017-08-31T13:30:19.350Z,14.3
2017-08-31T13:30:22.790Z,14.3
2017-08-31T13:30:26.237Z,14.4
2017-08-31T13:30:29.680Z,14.4
2017-08-31T13:30:33.144Z,14.4
2017-08-31T13:30:36.216Z,14.4
2017-08-31T13:30:39.282Z,14.4
2017-08-31T13:30:42.398Z,14.3
2017-08-31T13:30:45.837Z,14.3
2017-08-31T13:30:48.971Z,14.3
2017-08-31T13:30:52.040Z,14.3
2017-08-31T13:30:55.489Z,14.3
2017-08-31T13:30:58.936Z,14.3
2017-08-31T13:31:02.369Z,14.3
2017-08-31T13:31:05.831Z,14.3
2017-08-31T13:31:08.922Z,14.3
2017-08-31T13:31:12.363Z,14.3
2017-08-31T13:31:15.486Z,14.2
2017-08-31T13:31:18.944Z,14.2
2017-08-31T13:31:22.415Z,14.2
2017-08-31T13:31:25.854Z,14.2
2017-08-31T13:31:29.323Z,14.2
2017-08-31T13:31:32.782Z,14.2
2017-08-31T13:31:36.274Z,14.2
2017-08-31T13:31:40.287Z,14.2
2017-08-31T13:31:43.888Z,14.2
2017-08-31T13:31:47.334Z,14.2
2017-08-31T13:31:50.793Z,14.2
2017-08-31T13:31:54.222Z,14.2
2017-08-31T13:31:57.661Z,14.2
2017-08-31T13:32:00.743Z,14.2
2017-08-31T13:32:04.207Z,14.2
2017-08-31T13:32:07.650Z,14.2
2017-08-31T13:32:11.079Z,14.2
2017-08-31T13:32:14.997Z,14.2
2017-08-31T13:32:18.472Z,14.3
2017-08-31T13:32:21.968Z,14.2
2017-08-31T13:32:25.438Z,14.3
2017-08-31T13:32:28.912Z,14.3
2017-08-31T13:32:32.354Z,14.3
2017-08-31T13:32:35.451Z,14.3
2017-08-31T13:32:38.919Z,14.3
2017-08-31T13:32:42.353Z,14.3
2017-08-31T13:32:45.434Z,14.3
2017-08-31T13:32:48.614Z,14.3
2017-08-31T13:32:51.751Z,14.3
2017-08-31T13:32:54.831Z,14.3
2017-08-31T13:32:57.923Z,14.3
2017-08-31T13:33:01.031Z,14.3
2017-08-31T13:33:04.211Z,14.3
2017-08-31T13:33:07.680Z,14.4
2017-08-31T13:33:11.130Z,14.3
2017-08-31T13:33:14.580Z,14.3
2017-08-31T13:33:18.031Z,14.3
2017-08-31T13:33:21.495Z,14.3
2017-08-31T13:33:24.951Z,14.3
2017-08-31T13:33:28.058Z,14.3
2017-08-31T13:33:31.519Z,14.3
2017-08-31T13:33:34.954Z,14.3
2017-08-31T13:33:38.424Z,14.3
2017-08-31T13:33:41.872Z,14.4
2017-08-31T13:33:45.326Z,14.3
2017-08-31T13:33:48.771Z,14.3
2017-08-31T13:33:52.931Z,14.3
2017-08-31T13:33:56.378Z,14.3
2017-08-31T13:33:59.840Z,14.3
2017-08-31T13:34:03.290Z,14.4
2017-08-31T13:34:06.752Z,14.3
2017-08-31T13:34:10.196Z,14.3
2017-08-31T13:34:13.644Z,14.4
2017-08-31T13:34:17.091Z,14.4
2017-08-31T13:34:20.558Z,14.3
2017-08-31T13:34:23.997Z,14.3
2017-08-31T13:34:27.951Z,14.3
2017-08-31T13:34:31.072Z,14.3
2017-08-31T13:34:34.525Z,14.3
2017-08-31T13:34:37.639Z,14.3
2017-08-31T13:34:41.084Z,14.3
2017-08-31T13:34:44.522Z,14.3
2017-08-31T13:34:47.270Z,14.3
2017-08-31T13:34:50.719Z,14.3
2017-08-31T13:34:54.171Z,14.3
2017-08-31T13:34:58.026Z,14.3
2017-08-31T13:35:01.191Z,14.3
2017-08-31T13:35:04.299Z,14.3
2017-08-31T13:35:07.421Z,14.3
2017-08-31T13:35:10.521Z,14.3
2017-08-31T13:35:13.962Z,14.3
2017-08-31T13:35:17.030Z,14.3
2017-08-31T13:35:20.477Z,14.3
2017-08-31T13:35:23.930Z,14.3
2017-08-31T13:35:27.375Z,14.3
2017-08-31T13:35:31.218Z,14.4
2017-08-31T13:35:34.359Z,14.4
2017-08-31T13:35:37.826Z,14.4
2017-08-31T13:35:41.277Z,14.4
2017-08-31T13:35:44.370Z,14.4
2017-08-31T13:35:47.503Z,14.4
2017-08-31T13:35:50.618Z,14.4
2017-08-31T13:35:54.059Z,14.4
2017-08-31T13:35:57.511Z,14.4
2017-08-31T13:36:00.978Z,14.4
2017-08-31T13:36:04.973Z,14.4
2017-08-31T13:36:08.436Z,14.4
2017-08-31T13:36:11.913Z,14.4
2017-08-31T13:36:15.380Z,14.4
2017-08-31T13:36:18.498Z,14.4
2017-08-31T13:36:21.919Z,14.4
2017-08-31T13:36:25.373Z,14.4
2017-08-31T13:36:28.488Z,14.4
2017-08-31T13:36:31.933Z,14.4
2017-08-31T13:36:35.381Z,14.4
2017-08-31T13:36:38.871Z,14.4
2017-08-31T13:36:42.332Z,14.4
2017-08-31T13:36:45.790Z,14.4
2017-08-31T13:36:49.223Z,14.4
2017-08-31T13:36:52.678Z,14.4
2017-08-31T13:36:55.779Z,14.4
2017-08-31T13:36:59.231Z,14.4
2017-08-31T13:37:02.355Z,14.4
2017-08-31T13:37:05.890Z,14.4
2017-08-31T13:37:09.054Z,14.4
2017-08-31T13:37:12.630Z,14.4
2017-08-31T13:37:16.111Z,14.4
2017-08-31T13:37:19.562Z,14.4
2017-08-31T13:37:22.638Z,14.3
2017-08-31T13:37:26.081Z,14.4
2017-08-31T13:37:29.145Z,14.4
2017-08-31T13:37:32.607Z,14.4
2017-08-31T13:37:36.055Z,14.4
2017-08-31T13:37:39.515Z,14.4
2017-08-31T13:37:42.959Z,14.4
2017-08-31T13:37:46.084Z,14.4
2017-08-31T13:37:49.530Z,14.4
2017-08-31T13:37:52.964Z,14.4
2017-08-31T13:37:56.416Z,14.4
2017-08-31T13:37:59.513Z,14.4
2017-08-31T13:38:02.977Z,14.4
2017-08-31T13:38:06.438Z,14.4
2017-08-31T13:38:09.983Z,14.4
2017-08-31T13:38:13.874Z,14.4
2017-08-31T13:38:17.162Z,14.4
2017-08-31T13:38:20.275Z,14.4
2017-08-31T13:38:23.392Z,14.4
2017-08-31T13:38:26.870Z,14.4
2017-08-31T13:38:30.324Z,14.4
2017-08-31T13:38:33.468Z,14.4
2017-08-31T13:38:36.571Z,14.4
2017-08-31T13:38:40.027Z,14.4
2017-08-31T13:38:43.456Z,14.4
2017-08-31T13:38:46.198Z,14.4
2017-08-31T13:38:49.660Z,14.4
2017-08-31T13:38:53.117Z,14.4
2017-08-31T13:38:56.576Z,14.4
2017-08-31T13:38:59.325Z,14.4
2017-08-31T13:39:02.767Z,14.5
2017-08-31T13:39:06.212Z,14.5
2017-08-31T13:39:09.676Z,14.5
2017-08-31T13:39:13.123Z,14.5
2017-08-31T13:39:16.579Z,14.5
2017-08-31T13:39:20.020Z,14.5
2017-08-31T13:39:23.138Z,14.5
2017-08-31T13:39:26.607Z,14.5
2017-08-31T13:39:29.676Z,14.5
2017-08-31T13:39:32.790Z,14.5
2017-08-31T13:39:36.251Z,14.5
2017-08-31T13:39:39.717Z,14.5
2017-08-31T13:39:43.160Z,14.5
2017-08-31T13:39:46.278Z,14.5
2017-08-31T13:39:49.404Z,14.6
2017-08-31T13:39:52.891Z,14.6
2017-08-31T13:39:56.339Z,14.6
2017-08-31T13:39:59.783Z,14.6
2017-08-31T13:40:03.241Z,14.6
2017-08-31T13:40:06.345Z,14.7
2017-08-31T13:40:09.798Z,14.7
2017-08-31T13:40:13.231Z,14.7
2017-08-31T13:40:16.686Z,14.7
2017-08-31T13:40:20.118Z,14.8
2017-08-31T13:40:23.551Z,14.8
2017-08-31T13:40:26.977Z,14.8
2017-08-31T13:40:30.426Z,14.8
2017-08-31T13:40:33.883Z,14.9
2017-08-31T13:40:37.360Z,14.9
2017-08-31T13:40:40.815Z,14.9
2017-08-31T13:40:43.897Z,14.9
2017-08-31T13:40:47.010Z,14.9
2017-08-31T13:40:50.185Z,14.9
2017-08-31T13:40:53.632Z,14.9
2017-08-31T13:40:56.950Z,14.9
2017-08-31T13:41:00.400Z,14.9
2017-08-31T13:41:03.480Z,14.9
2017-08-31T13:41:06.608Z,14.9
2017-08-31T13:41:09.738Z,14.9
2017-08-31T13:41:12.812Z,14.9
2017-08-31T13:41:15.895Z,14.9
2017-08-31T13:41:18.970Z,15
2017-08-31T13:41:22.411Z,15
2017-08-31T13:41:25.863Z,15
2017-08-31T13:41:29.302Z,15
2017-08-31T13:41:32.717Z,15
2017-08-31T13:41:36.191Z,15
2017-08-31T13:41:39.697Z,15
2017-08-31T13:41:42.804Z,15
2017-08-31T13:41:46.265Z,15.1
2017-08-31T13:41:49.712Z,15.1
2017-08-31T13:41:53.170Z,15.1
2017-08-31T13:41:56.618Z,15.1
2017-08-31T13:41:59.743Z,15.1
2017-08-31T13:42:03.190Z,15.1
2017-08-31T13:42:06.271Z,15.1
2017-08-31T13:42:09.766Z,15.1
2017-08-31T13:42:12.852Z,15.1
2017-08-31T13:42:15.973Z,15.1
2017-08-31T13:42:19.419Z,15.1
2017-08-31T13:42:22.540Z,15.1
2017-08-31T13:42:25.990Z,15.2
2017-08-31T13:42:29.434Z,15.1
2017-08-31T13:42:32.890Z,15.2
2017-08-31T13:42:36.018Z,15.2
2017-08-31T13:42:39.460Z,15.2
2017-08-31T13:42:42.571Z,15.2
2017-08-31T13:42:46.017Z,15.2
2017-08-31T13:42:49.479Z,15.2
2017-08-31T13:42:52.931Z,15.3
2017-08-31T13:42:55.678Z,15.3
2017-08-31T13:42:58.782Z,15.3
2017-08-31T13:43:02.217Z,15.3
2017-08-31T13:43:05.670Z,15.3
2017-08-31T13:43:09.111Z,15.3
2017-08-31T13:43:12.190Z,15.3
2017-08-31T13:43:15.643Z,15.4
2017-08-31T13:43:19.118Z,15.4
2017-08-31T13:43:22.571Z,15.4
2017-08-31T13:43:25.663Z,15.4
2017-08-31T13:43:29.119Z,15.4
2017-08-31T13:43:32.571Z,15.4
2017-08-31T13:43:36.015Z,15.4
2017-08-31T13:43:39.462Z,15.4
2017-08-31T13:43:42.579Z,15.4
2017-08-31T13:44:00.767Z,15.4
2017-08-31T13:44:03.843Z,15.3
2017-08-31T13:44:07.310Z,15.3
2017-08-31T13:44:10.765Z,15.3
2017-08-31T13:44:14.230Z,15.3
2017-08-31T13:44:17.400Z,15.3
2017-08-31T13:44:20.817Z,15.3
2017-08-31T13:44:24.268Z,15.3
2017-08-31T13:44:27.734Z,15.3
2017-08-31T13:44:30.838Z,15.3
2017-08-31T13:44:34.313Z,15.4
2017-08-31T13:44:37.751Z,15.4
2017-08-31T13:44:41.197Z,15.3
2017-08-31T13:44:44.271Z,15.3
2017-08-31T13:44:47.720Z,15.3
2017-08-31T13:44:51.171Z,15.3
2017-08-31T13:44:54.611Z,15.3
2017-08-31T13:44:57.696Z,15.2
2017-08-31T13:45:01.135Z,15.3
2017-08-31T13:45:04.252Z,15.3
2017-08-31T13:45:07.331Z,15.3
2017-08-31T13:45:10.778Z,15.2
2017-08-31T13:45:14.250Z,15.3
2017-08-31T13:45:17.323Z,15.2
2017-08-31T13:45:20.769Z,15.2
2017-08-31T13:45:24.231Z,15.2
2017-08-31T13:45:27.359Z,15.2
2017-08-31T13:45:30.803Z,15.2
2017-08-31T13:45:34.271Z,15.2
2017-08-31T13:45:37.015Z,15.3
2017-08-31T13:45:40.450Z,15.2
2017-08-31T13:45:43.913Z,15.3
2017-08-31T13:45:47.365Z,15.3
2017-08-31T13:45:50.484Z,15.3
2017-08-31T13:45:53.231Z,15.2
2017-08-31T13:45:56.370Z,15.2
2017-08-31T13:45:59.817Z,15.2
2017-08-31T13:46:03.254Z,15.2
2017-08-31T13:46:06.710Z,15.2
2017-08-31T13:46:09.799Z,15.2
2017-08-31T13:46:12.537Z,15.2
2017-08-31T13:46:15.983Z,15.2
2017-08-31T13:46:19.419Z,15.2
2017-08-31T13:46:22.870Z,15.2
2017-08-31T13:46:26.322Z,15.2
2017-08-31T13:46:29.779Z,15.2
2017-08-31T13:46:33.232Z,15.2
2017-08-31T13:46:36.382Z,15.2
2017-08-31T13:46:39.883Z,15.2
2017-08-31T13:46:42.978Z,15.2
2017-08-31T13:46:46.411Z,15.2
2017-08-31T13:46:49.896Z,15.3
2017-08-31T13:46:53.369Z,15.3
2017-08-31T13:46:56.452Z,15.3
2017-08-31T13:46:59.891Z,15.3
2017-08-31T13:47:03.340Z,15.3
2017-08-31T13:47:06.781Z,15.4
2017-08-31T13:47:10.235Z,15.4
2017-08-31T13:47:13.358Z,15.4
2017-08-31T13:47:16.812Z,15.4
2017-08-31T13:47:20.271Z,15.4
2017-08-31T13:47:23.371Z,15.4
2017-08-31T13:47:26.448Z,15.4
2017-08-31T13:47:29.567Z,15.4
2017-08-31T13:47:33.007Z,15.3
2017-08-31T13:47:36.123Z,15.3
2017-08-31T13:47:39.583Z,15.3
2017-08-31T13:47:42.695Z,15.3
2017-08-31T13:47:46.502Z,15.3
2017-08-31T13:47:49.642Z,15.2
2017-08-31T13:47:53.096Z,15.2
2017-08-31T13:47:56.532Z,15.2
2017-08-31T13:48:00.011Z,15.2
2017-08-31T13:48:03.486Z,15.2
2017-08-31T13:48:06.931Z,15.2
2017-08-31T13:48:10.410Z,15.2
2017-08-31T13:48:13.498Z,15.1
2017-08-31T13:48:16.950Z,15.1
2017-08-31T13:48:19.694Z,15.1
2017-08-31T13:48:22.790Z,15.1
2017-08-31T13:48:25.522Z,15.1
2017-08-31T13:48:28.974Z,15.1
2017-08-31T13:48:32.439Z,15.1
2017-08-31T13:48:35.897Z,15.1
2017-08-31T13:48:39.007Z,15.1
2017-08-31T13:48:42.471Z,15.1
2017-08-31T13:48:45.566Z,15.1
2017-08-31T13:48:49.015Z,15.1
2017-08-31T13:48:52.491Z,15.1
2017-08-31T13:48:55.931Z,15.1
2017-08-31T13:48:59.100Z,15.1
2017-08-31T13:49:02.550Z,15.1
2017-08-31T13:49:06.001Z,15.1
2017-08-31T13:49:09.451Z,15.1
2017-08-31T13:49:12.930Z,15.1
2017-08-31T13:49:16.056Z,15.1
2017-08-31T13:49:19.143Z,15.1
2017-08-31T13:49:22.575Z,15.1
2017-08-31T13:49:26.027Z,15.1
2017-08-31T13:49:29.120Z,15.1
2017-08-31T13:49:32.570Z,15.1
2017-08-31T13:49:35.690Z,15.1
2017-08-31T13:49:38.777Z,15.1
2017-08-31T13:49:41.517Z,15.1
2017-08-31T13:49:44.972Z,15.2
2017-08-31T13:49:48.431Z,15.2
2017-08-31T13:49:51.878Z,15.2
2017-08-31T13:49:55.360Z,15.2
2017-08-31T13:49:58.494Z,15.3
2017-08-31T13:50:01.950Z,15.3
2017-08-31T13:50:05.427Z,15.3
2017-08-31T13:50:08.884Z,15.3
2017-08-31T13:50:12.687Z,15.3
2017-08-31T13:50:16.151Z,15.3
2017-08-31T13:50:19.610Z,15.4
2017-08-31T13:50:22.735Z,15.4
2017-08-31T13:50:25.812Z,15.4
2017-08-31T13:50:28.911Z,15.4
2017-08-31T13:50:32.370Z,15.4
2017-08-31T13:50:35.804Z,15.4
2017-08-31T13:50:39.261Z,15.4
2017-08-31T13:50:42.711Z,15.4
2017-08-31T13:50:46.170Z,15.4
2017-08-31T13:50:49.606Z,15.4
2017-08-31T13:50:53.036Z,15.4
2017-08-31T13:50:56.481Z,15.5
2017-08-31T13:50:59.578Z,15.4
2017-08-31T13:51:03.040Z,15.4
2017-08-31T13:51:06.171Z,15.4
2017-08-31T13:51:09.296Z,15.4
2017-08-31T13:51:12.385Z,15.3
2017-08-31T13:51:15.838Z,15.3
2017-08-31T13:51:19.300Z,15.3
2017-08-31T13:51:22.053Z,15.3
2017-08-31T13:51:25.518Z,15.3
2017-08-31T13:51:28.964Z,15.3
2017-08-31T13:51:32.419Z,15.3
2017-08-31T13:51:36.311Z,15.3
2017-08-31T13:51:39.391Z,15.3
2017-08-31T13:51:42.855Z,15.2
2017-08-31T13:51:46.311Z,15.2
2017-08-31T13:51:49.752Z,15.2
2017-08-31T13:51:53.204Z,15.3
2017-08-31T13:51:56.285Z,15.3
2017-08-31T13:51:59.744Z,15.3
2017-08-31T13:52:03.190Z,15.3
2017-08-31T13:52:06.634Z,15.3
2017-08-31T13:52:10.090Z,15.3
2017-08-31T13:52:13.185Z,15.3
2017-08-31T13:52:16.624Z,15.3
2017-08-31T13:52:20.077Z,15.3
2017-08-31T13:52:23.150Z,15.4
2017-08-31T13:52:26.612Z,15.4
2017-08-31T13:52:30.045Z,15.4
2017-08-31T13:52:33.257Z,15.4
2017-08-31T13:52:36.711Z,15.4
2017-08-31T13:52:40.178Z,15.5
2017-08-31T13:52:43.260Z,15.5
2017-08-31T13:52:46.712Z,15.5
2017-08-31T13:52:50.216Z,15.5
2017-08-31T13:52:53.300Z,15.6
2017-08-31T13:52:57.036Z,15.6
2017-08-31T13:53:00.495Z,15.6
2017-08-31T13:53:03.591Z,15.6
2017-08-31T13:53:06.331Z,15.6
2017-08-31T13:53:09.421Z,15.6
2017-08-31T13:53:12.871Z,15.6
2017-08-31T13:53:16.331Z,15.7
2017-08-31T13:53:19.790Z,15.7
2017-08-31T13:53:22.890Z,15.7
2017-08-31T13:53:26.351Z,15.7
2017-08-31T13:53:29.445Z,15.7
2017-08-31T13:53:32.890Z,15.8
2017-08-31T13:53:36.352Z,15.8
2017-08-31T13:53:39.813Z,15.8
2017-08-31T13:53:43.246Z,15.8
2017-08-31T13:53:46.685Z,15.8
2017-08-31T13:53:50.132Z,15.8
2017-08-31T13:53:52.871Z,15.8
2017-08-31T13:53:56.319Z,15.8
2017-08-31T13:53:59.758Z,15.8
2017-08-31T13:54:02.841Z,15.7
2017-08-31T13:54:06.287Z,15.7
2017-08-31T13:54:09.805Z,15.7
2017-08-31T13:54:12.890Z,15.7
2017-08-31T13:54:16.001Z,15.7
2017-08-31T13:54:19.447Z,15.7
2017-08-31T13:54:22.911Z,15.7
2017-08-31T13:54:26.377Z,15.7
2017-08-31T13:54:29.817Z,15.8
2017-08-31T13:54:33.271Z,15.8
2017-08-31T13:54:36.731Z,15.8
2017-08-31T13:54:40.190Z,15.8
2017-08-31T13:54:43.315Z,15.8
2017-08-31T13:54:46.775Z,15.8
2017-08-31T13:54:50.241Z,15.8
2017-08-31T13:54:53.684Z,15.8
2017-08-31T13:54:57.155Z,15.9
2017-08-31T13:55:00.603Z,15.9
2017-08-31T13:55:04.051Z,15.9
2017-08-31T13:55:07.178Z,15.9
2017-08-31T13:55:10.618Z,15.9
2017-08-31T13:55:14.159Z,15.9
2017-08-31T13:55:17.620Z,15.9
2017-08-31T13:55:20.741Z,16
2017-08-31T13:55:24.194Z,15.9
2017-08-31T13:55:27.683Z,15.9
2017-08-31T13:55:30.818Z,15.9
2017-08-31T13:55:34.270Z,15.9
2017-08-31T13:55:37.358Z,15.9
2017-08-31T13:55:40.796Z,15.9
2017-08-31T13:55:43.879Z,15.9
2017-08-31T13:55:47.342Z,15.9
2017-08-31T13:55:50.793Z,15.8
2017-08-31T13:55:53.907Z,15.8
2017-08-31T13:55:56.659Z,15.8
2017-08-31T13:56:00.116Z,15.8
2017-08-31T13:56:03.229Z,15.8
2017-08-31T13:56:06.685Z,15.7
2017-08-31T13:56:10.139Z,15.7
2017-08-31T13:56:13.582Z,15.7
2017-08-31T13:56:17.049Z,15.7
2017-08-31T13:56:20.510Z,15.7
2017-08-31T13:56:23.971Z,15.8
2017-08-31T13:56:27.430Z,15.8
2017-08-31T13:56:30.887Z,15.8
2017-08-31T13:56:34.351Z,15.8
2017-08-31T13:56:37.823Z,15.8
2017-08-31T13:56:41.270Z,15.8
2017-08-31T13:56:44.431Z,15.8
2017-08-31T13:56:47.878Z,15.8
2017-08-31T13:56:50.971Z,15.8
2017-08-31T13:56:54.429Z,15.8
2017-08-31T13:56:57.526Z,15.8
2017-08-31T13:57:00.641Z,15.8
2017-08-31T13:57:04.093Z,15.8
2017-08-31T13:57:07.545Z,15.8
2017-08-31T13:57:10.641Z,15.8
2017-08-31T13:57:14.086Z,15.8
2017-08-31T13:57:17.200Z,15.9
2017-08-31T13:57:20.280Z,15.9
2017-08-31T13:57:23.738Z,15.9
2017-08-31T13:57:27.186Z,15.9
2017-08-31T13:57:30.643Z,15.9
2017-08-31T13:57:34.074Z,15.9
2017-08-31T13:57:37.198Z,15.9
2017-08-31T13:57:40.640Z,15.8
2017-08-31T13:57:43.722Z,15.8
2017-08-31T13:57:47.176Z,15.8
2017-08-31T13:57:50.278Z,15.8
2017-08-31T13:57:53.391Z,15.8
2017-08-31T13:57:56.121Z,15.8
2017-08-31T13:57:59.205Z,15.8
2017-08-31T13:58:02.647Z,15.7
2017-08-31T13:58:06.110Z,15.7
2017-08-31T13:58:09.271Z,15.7
2017-08-31T13:58:12.743Z,15.7
2017-08-31T13:58:16.231Z,15.7
2017-08-31T13:58:19.673Z,15.6
2017-08-31T13:58:23.132Z,15.6
2017-08-31T13:58:26.571Z,15.6
2017-08-31T13:58:30.031Z,15.6